Time;durP1;ratioP1;P1;durP2;ratioP2;P2;SDS_P1;SDS_P2;PMS_P1;PMS_P2;Temp;Humidity;BMP_temperature;BMP_pressure;BME280_temperature;BME280_humidity;BME280_pressure;Samples;Min_cycle;Max_cycle;Signal;HPM_P1;HPM_P2
2021/05/04 00:02:14;;;;;;;8.20;4.30;;;11.40;99.90;;;;;;5000239;28;20022;-67
2021/05/04 00:04:40;;;;;;;6.60;4.15;;;11.30;99.90;;;;;;5005570;28;20030;-66
2021/05/04 00:07:05;;;;;;;13.63;4.22;;;11.20;99.90;;;;;;5004198;28;20574;-67
2021/05/04 00:09:31;;;;;;;6.43;4.18;;;11.10;99.90;;;;;;5014573;28;20117;-68
2021/05/04 00:11:56;;;;;;;5.72;4.95;;;11.00;99.90;;;;;;5008336;28;20057;-66
2021/05/04 00:14:22;;;;;;;6.97;5.20;;;10.90;99.90;;;;;;5016551;28;20092;-67
2021/05/04 00:16:48;;;;;;;10.82;5.43;;;10.80;99.90;;;;;;5011400;28;20155;-67
2021/05/04 00:19:14;;;;;;;9.10;5.93;;;10.70;99.90;;;;;;4977805;28;20045;-65
2021/05/04 00:21:40;;;;;;;11.95;6.80;;;10.60;99.90;;;;;;5004784;28;20096;-67
2021/05/04 00:24:06;;;;;;;8.48;6.55;;;10.40;99.90;;;;;;5001598;28;20117;-66
2021/05/04 00:26:32;;;;;;;11.90;7.70;;;10.20;99.90;;;;;;4989639;28;20465;-67
2021/05/04 00:28:58;;;;;;;10.60;9.38;;;10.10;99.90;;;;;;5006940;28;20509;-68
2021/05/04 00:31:24;;;;;;;13.38;9.60;;;10.00;99.90;;;;;;5006985;28;20022;-67
2021/05/04 00:33:49;;;;;;;16.05;8.98;;;9.90;99.90;;;;;;5008306;28;20048;-67
2021/05/04 00:36:15;;;;;;;12.63;11.30;;;9.80;99.90;;;;;;4985789;28;20030;-68
2021/05/04 00:38:40;;;;;;;12.27;11.07;;;9.80;99.90;;;;;;5004815;28;20160;-68
2021/05/04 00:41:06;;;;;;;15.07;13.43;;;9.80;99.90;;;;;;5007702;28;20480;-68
2021/05/04 00:43:33;;;;;;;17.92;13.10;;;9.70;99.90;;;;;;5006882;28;20488;-67
2021/05/04 00:45:59;;;;;;;19.08;17.20;;;9.60;99.90;;;;;;5007792;28;20522;-68
2021/05/04 00:48:26;;;;;;;13.95;12.65;;;9.60;99.90;;;;;;4997102;28;20021;-70
2021/05/04 00:50:51;;;;;;;21.15;19.20;;;9.60;99.90;;;;;;5006890;28;20104;-65
2021/05/04 00:53:17;;;;;;;25.65;23.77;;;9.60;99.90;;;;;;5010403;28;20457;-69
2021/05/04 00:55:44;;;;;;;29.50;27.40;;;9.50;99.90;;;;;;5014728;28;20029;-69
2021/05/04 00:58:11;;;;;;;29.58;27.35;;;9.50;99.90;;;;;;5018380;28;20072;-69
2021/05/04 01:00:38;;;;;;;32.53;30.02;;;9.50;99.90;;;;;;5012182;28;20027;-70
2021/05/04 01:03:05;;;;;;;30.83;28.75;;;9.40;99.90;;;;;;5011925;28;20018;-67
2021/05/04 01:05:31;;;;;;;30.65;28.05;;;9.50;99.90;;;;;;4991485;28;20494;-68
2021/05/04 01:07:56;;;;;;;33.50;30.27;;;9.40;99.90;;;;;;5003474;28;20049;-67
2021/05/04 01:10:22;;;;;;;34.08;31.33;;;9.30;99.90;;;;;;4995432;28;20037;-68
2021/05/04 01:12:48;;;;;;;39.53;36.17;;;9.30;99.90;;;;;;4996393;28;20050;-70
2021/05/04 01:15:14;;;;;;;41.03;37.97;;;9.30;99.90;;;;;;4997992;28;20048;-69
2021/05/04 01:17:39;;;;;;;26.50;24.55;;;9.20;99.90;;;;;;5003543;28;20022;-69
2021/05/04 01:20:06;;;;;;;22.65;21.10;;;9.20;99.90;;;;;;5019437;28;20079;-69
2021/05/04 01:22:32;;;;;;;22.52;20.73;;;9.10;99.90;;;;;;5012003;28;20540;-68
2021/05/04 01:24:57;;;;;;;20.65;18.95;;;9.10;99.90;;;;;;5012018;28;20028;-67
2021/05/04 01:27:23;;;;;;;32.50;30.40;;;9.10;99.90;;;;;;4993477;28;20026;-68
2021/05/04 01:29:49;;;;;;;29.98;27.55;;;9.20;99.90;;;;;;5011622;28;20030;-67
2021/05/04 01:32:15;;;;;;;27.67;25.70;;;9.20;99.90;;;;;;5018880;22;20486;-75
2021/05/04 01:34:41;;;;;;;28.58;26.58;;;9.20;99.90;;;;;;4980784;28;20072;-75
2021/05/04 01:37:07;;;;;;;29.70;27.65;;;9.10;99.90;;;;;;4962408;28;20025;-75
2021/05/04 01:39:44;;;;;;;27.45;25.55;;;9.10;99.90;;;;;;4932635;28;20029;-76
2021/05/04 01:42:11;;;;;;;28.05;26.45;;;9.10;99.90;;;;;;4933814;28;20349;-73
2021/05/04 01:44:37;;;;;;;29.88;27.88;;;9.10;99.90;;;;;;4932242;28;20503;-74
2021/05/04 01:47:03;;;;;;;26.02;23.52;;;9.10;99.90;;;;;;4933008;28;20127;-74
2021/05/04 01:49:31;;;;;;;26.40;24.80;;;9.10;99.90;;;;;;4933617;28;20056;-75
2021/05/04 01:51:57;;;;;;;26.30;24.70;;;9.20;99.90;;;;;;4950265;28;20020;-75
2021/05/04 01:54:24;;;;;;;25.42;23.85;;;9.20;99.90;;;;;;4949758;28;20031;-73
2021/05/04 01:56:54;;;;;;;25.15;23.52;;;9.10;99.90;;;;;;4930085;28;20028;-74
2021/05/04 01:59:21;;;;;;;22.40;21.10;;;9.20;99.90;;;;;;4934069;28;20027;-74
2021/05/04 02:01:47;;;;;;;21.98;20.33;;;9.20;99.90;;;;;;4934278;28;20024;-74
2021/05/04 02:04:12;;;;;;;18.25;17.05;;;9.30;99.90;;;;;;4935683;28;20039;-73
2021/05/04 02:06:38;;;;;;;18.30;16.95;;;9.30;99.90;;;;;;4936026;28;20044;-75
2021/05/04 02:09:06;;;;;;;16.25;14.93;;;9.30;99.90;;;;;;4936939;28;20028;-75
2021/05/04 02:11:32;;;;;;;17.88;16.65;;;9.30;99.90;;;;;;4941414;28;20016;-73
2021/05/04 02:13:59;;;;;;;16.33;15.27;;;9.30;99.90;;;;;;4933043;28;20030;-75
2021/05/04 02:16:26;;;;;;;17.20;16.10;;;9.40;99.90;;;;;;4933416;28;20058;-73
2021/05/04 02:18:52;;;;;;;15.68;14.40;;;9.50;99.90;;;;;;4930794;28;20098;-74
2021/05/04 02:21:17;;;;;;;14.10;12.48;;;9.50;99.90;;;;;;4934064;28;20024;-74
2021/05/04 02:23:43;;;;;;;14.18;10.05;;;9.50;99.90;;;;;;4950812;28;20032;-76
2021/05/04 02:26:11;;;;;;;9.90;9.20;;;9.50;99.90;;;;;;4938111;28;20054;-75
2021/05/04 02:28:37;;;;;;;5.53;5.03;;;9.50;99.90;;;;;;4958637;28;20028;-74
2021/05/04 02:31:05;;;;;;;5.05;4.57;;;9.50;99.90;;;;;;4928426;28;20047;-74
2021/05/04 02:33:30;;;;;;;7.35;4.20;;;9.50;99.90;;;;;;4934604;28;20028;-76
2021/05/04 02:35:57;;;;;;;10.80;5.22;;;9.40;99.90;;;;;;4939346;28;20557;-73
2021/05/04 02:38:23;;;;;;;5.85;5.25;;;9.40;99.90;;;;;;4931472;28;20054;-75
2021/05/04 02:40:51;;;;;;;6.35;5.72;;;9.40;99.90;;;;;;4925115;28;20028;-76
2021/05/04 02:43:17;;;;;;;8.43;7.20;;;9.40;99.90;;;;;;4947245;28;20415;-74
2021/05/04 02:45:42;;;;;;;7.10;5.57;;;9.30;99.90;;;;;;4933336;28;20078;-73
2021/05/04 02:48:08;;;;;;;5.93;4.57;;;9.30;99.90;;;;;;4933594;28;20047;-74
2021/05/04 02:50:36;;;;;;;12.13;4.38;;;9.30;99.90;;;;;;4942058;28;20035;-74
2021/05/04 02:53:02;;;;;;;4.68;4.28;;;9.40;99.90;;;;;;4938360;28;20039;-74
2021/05/04 02:55:27;;;;;;;6.35;4.00;;;9.50;99.90;;;;;;4934360;28;20023;-75
2021/05/04 02:57:53;;;;;;;5.32;3.88;;;9.60;99.90;;;;;;4933459;28;20079;-71
2021/05/04 03:00:21;;;;;;;4.75;3.78;;;9.60;99.90;;;;;;4952713;28;20020;-72
2021/05/04 03:02:47;;;;;;;7.80;3.65;;;9.60;99.90;;;;;;4938680;28;20450;-76
2021/05/04 03:05:13;;;;;;;6.68;3.20;;;9.60;99.90;;;;;;4932672;28;20043;-75
2021/05/04 03:07:38;;;;;;;5.88;3.53;;;9.60;99.90;;;;;;4933184;28;20434;-75
2021/05/04 03:10:05;;;;;;;5.60;4.13;;;9.60;99.90;;;;;;4934929;28;20510;-76
2021/05/04 03:12:32;;;;;;;3.85;3.55;;;9.60;99.90;;;;;;4933451;28;20066;-74
2021/05/04 03:14:58;;;;;;;6.55;4.90;;;9.60;99.90;;;;;;4934616;28;20491;-72
2021/05/04 03:17:24;;;;;;;8.60;5.10;;;9.50;99.90;;;;;;4932399;28;20028;-75
2021/05/04 03:19:49;;;;;;;5.60;5.20;;;9.40;99.90;;;;;;4935249;28;20392;-75
2021/05/04 03:22:15;;;;;;;6.80;5.20;;;9.40;99.90;;;;;;4937288;28;20161;-74
2021/05/04 03:24:41;;;;;;;7.43;5.60;;;9.30;99.90;;;;;;4933434;28;20028;-74
2021/05/04 03:27:07;;;;;;;9.40;8.05;;;9.20;99.90;;;;;;4939598;28;20051;-75
2021/05/04 03:29:33;;;;;;;13.63;12.50;;;9.10;99.90;;;;;;4936827;28;20043;-73
2021/05/04 03:31:58;;;;;;;15.98;14.98;;;9.10;99.90;;;;;;4933180;28;20543;-74
2021/05/04 03:34:25;;;;;;;13.45;12.57;;;9.00;99.90;;;;;;4948502;28;20060;-76
2021/05/04 03:36:51;;;;;;;16.65;15.13;;;8.90;99.90;;;;;;4938963;28;20024;-74
2021/05/04 03:39:16;;;;;;;15.55;14.55;;;8.90;99.90;;;;;;4935976;28;20038;-76
2021/05/04 03:41:42;;;;;;;18.05;16.65;;;8.90;99.90;;;;;;4941736;28;20019;-75
2021/05/04 03:44:08;;;;;;;17.33;16.23;;;9.00;99.90;;;;;;4947654;28;20050;-76
2021/05/04 03:46:34;;;;;;;16.17;14.98;;;9.00;99.90;;;;;;4962316;28;20016;-77
2021/05/04 03:48:59;;;;;;;17.38;16.02;;;9.00;99.90;;;;;;4953088;28;20031;-75
2021/05/04 03:51:25;;;;;;;22.30;20.58;;;9.00;99.90;;;;;;4952434;28;20016;-74
2021/05/04 03:53:51;;;;;;;24.33;22.70;;;9.00;99.90;;;;;;4953534;28;20023;-76
2021/05/04 03:56:16;;;;;;;27.25;25.60;;;8.90;99.90;;;;;;4951309;28;20032;-75
2021/05/04 03:58:42;;;;;;;29.67;27.65;;;8.90;99.90;;;;;;4948127;28;20044;-73
2021/05/04 04:01:08;;;;;;;28.80;27.10;;;8.90;99.90;;;;;;4960488;28;20352;-73
2021/05/04 04:03:33;;;;;;;30.70;28.80;;;8.90;99.90;;;;;;4954323;28;20095;-73
2021/05/04 04:05:59;;;;;;;31.05;29.13;;;9.00;99.90;;;;;;5006212;28;20021;-75
2021/05/04 04:08:25;;;;;;;31.88;29.85;;;9.00;99.90;;;;;;4961263;28;20091;-74
2021/05/04 04:10:50;;;;;;;33.40;31.30;;;8.90;99.90;;;;;;4933304;28;20324;-73
2021/05/04 04:13:16;;;;;;;32.72;30.35;;;8.80;99.90;;;;;;4940716;28;20034;-75
2021/05/04 04:15:42;;;;;;;21.77;20.38;;;8.80;99.90;;;;;;4947560;28;20038;-74
2021/05/04 04:18:08;;;;;;;21.38;19.67;;;8.70;99.90;;;;;;4935806;28;20036;-75
2021/05/04 04:20:33;;;;;;;22.17;19.90;;;8.70;99.90;;;;;;4944755;28;20042;-74
2021/05/04 04:22:59;;;;;;;20.23;18.83;;;8.80;99.90;;;;;;4965594;28;20040;-74
2021/05/04 04:25:25;;;;;;;19.05;17.35;;;8.80;99.90;;;;;;4939608;28;20024;-75
2021/05/04 04:27:50;;;;;;;16.55;14.23;;;8.90;99.90;;;;;;4946149;28;20032;-74
2021/05/04 04:30:19;;;;;;;17.63;16.33;;;8.90;99.90;;;;;;4934745;28;20024;-72
2021/05/04 04:32:45;;;;;;;18.05;16.45;;;9.00;99.90;;;;;;4937526;28;20044;-71
2021/05/04 04:35:11;;;;;;;18.58;15.88;;;9.00;99.90;;;;;;4947068;28;20039;-73
2021/05/04 04:37:37;;;;;;;16.73;15.32;;;9.10;99.90;;;;;;4933212;28;20032;-71
2021/05/04 04:40:05;;;;;;;22.15;13.70;;;9.10;99.90;;;;;;4937987;28;20020;-74
2021/05/04 04:42:31;;;;;;;19.75;17.33;;;9.20;99.90;;;;;;4939164;28;20027;-71
2021/05/04 04:44:57;;;;;;;26.77;19.95;;;9.20;99.90;;;;;;4944737;28;20024;-71
2021/05/04 04:47:23;;;;;;;29.23;21.02;;;9.20;99.90;;;;;;4940738;28;20081;-72
2021/05/04 04:49:48;;;;;;;28.15;21.55;;;9.20;99.90;;;;;;4956041;28;20051;-74
2021/05/04 04:52:14;;;;;;;23.27;20.95;;;9.20;99.90;;;;;;4964287;28;20035;-74
2021/05/04 04:54:40;;;;;;;23.60;20.05;;;9.20;99.90;;;;;;4986290;28;20047;-75
2021/05/04 04:57:06;;;;;;;28.52;21.65;;;9.30;99.90;;;;;;4941187;28;20024;-72
2021/05/04 04:59:33;;;;;;;22.52;20.35;;;9.20;99.90;;;;;;4939877;28;20124;-74
2021/05/04 05:02:01;;;;;;;25.35;23.00;;;9.20;99.90;;;;;;4944983;28;20023;-73
2021/05/04 05:04:28;;;;;;;29.38;23.27;;;9.20;99.90;;;;;;4943732;28;20025;-74
2021/05/04 05:06:55;;;;;;;28.40;24.10;;;9.20;99.90;;;;;;4949385;28;20032;-71
2021/05/04 05:09:20;;;;;;;34.58;25.95;;;9.20;99.90;;;;;;4938426;28;20039;-73
2021/05/04 05:11:46;;;;;;;28.75;22.40;;;9.20;99.90;;;;;;4950036;28;20028;-71
2021/05/04 05:14:13;;;;;;;36.75;20.90;;;9.20;99.90;;;;;;4934124;28;20038;-74
2021/05/04 05:16:39;;;;;;;23.10;20.63;;;9.20;99.90;;;;;;4941102;28;20550;-72
2021/05/04 05:19:05;;;;;;;24.40;20.60;;;9.20;99.90;;;;;;4941044;28;20031;-73
2021/05/04 05:21:32;;;;;;;25.55;18.52;;;9.20;99.90;;;;;;4947330;28;20055;-74
2021/05/04 05:24:00;;;;;;;29.50;18.65;;;9.20;99.90;;;;;;4944593;28;20086;-74
2021/05/04 05:26:26;;;;;;;25.75;17.52;;;9.20;99.90;;;;;;4933912;28;20115;-73
2021/05/04 05:28:54;;;;;;;26.35;17.35;;;9.30;99.90;;;;;;4926467;28;20205;-71
2021/05/04 05:31:21;;;;;;;28.70;17.40;;;9.30;99.90;;;;;;4927753;28;20055;-72
2021/05/04 05:33:47;;;;;;;23.52;16.40;;;9.30;99.90;;;;;;4926164;28;20034;-72
2021/05/04 05:36:13;;;;;;;25.92;16.15;;;9.30;99.90;;;;;;4925581;28;20032;-72
2021/05/04 05:38:39;;;;;;;27.98;17.05;;;9.40;99.90;;;;;;4935817;28;20477;-75
2021/05/04 05:41:06;;;;;;;17.92;16.10;;;9.30;99.90;;;;;;4928335;28;20028;-73
2021/05/04 05:43:32;;;;;;;24.77;19.23;;;9.30;99.90;;;;;;4932770;28;20557;-72
2021/05/04 05:45:59;;;;;;;29.65;20.13;;;9.30;99.90;;;;;;4931371;28;20041;-72
2021/05/04 05:48:25;;;;;;;23.23;20.13;;;9.30;99.90;;;;;;4929689;28;20024;-71
2021/05/04 05:50:51;;;;;;;25.88;18.85;;;9.20;99.90;;;;;;4918931;28;20028;-71
2021/05/04 05:53:18;;;;;;;34.28;16.63;;;9.10;99.90;;;;;;4911074;28;20024;-71
2021/05/04 05:55:45;;;;;;;23.95;12.30;;;9.10;99.90;;;;;;4913214;28;20115;-72
2021/05/04 05:58:12;;;;;;;23.83;15.65;;;9.10;99.90;;;;;;4925944;28;20451;-70
2021/05/04 06:00:38;;;;;;;18.15;16.23;;;9.10;99.90;;;;;;4912971;28;20400;-71
2021/05/04 06:03:05;;;;;;;23.75;16.20;;;9.20;99.90;;;;;;4933123;28;20086;-70
2021/05/04 06:05:32;;;;;;;29.83;17.65;;;9.10;99.90;;;;;;4931224;28;20034;-71
2021/05/04 06:07:59;;;;;;;27.52;17.40;;;9.20;99.90;;;;;;4957081;28;20044;-67
2021/05/04 06:10:25;;;;;;;30.10;16.63;;;9.20;99.90;;;;;;4935757;28;20039;-70
2021/05/04 06:13:07;;;;;;;27.05;16.35;;;9.20;99.90;;;;;;4930589;28;20028;-69
2021/05/04 06:15:35;;;;;;;18.50;14.55;;;9.20;99.90;;;;;;4946375;28;20016;-69
2021/05/04 06:18:01;;;;;;;30.10;15.38;;;9.20;99.90;;;;;;4948310;28;20135;-67
2021/05/04 06:20:26;;;;;;;26.90;14.80;;;9.30;99.90;;;;;;4932803;28;20707;-69
2021/05/04 06:22:53;;;;;;;25.27;12.18;;;9.20;99.90;;;;;;4926890;28;20024;-70
2021/05/04 06:25:19;;;;;;;32.20;12.35;;;9.30;99.90;;;;;;4923112;28;20591;-69
2021/05/04 06:27:45;;;;;;;33.17;14.63;;;9.30;99.90;;;;;;4935009;28;20031;-66
2021/05/04 06:30:13;;;;;;;36.35;16.08;;;9.40;99.90;;;;;;4931569;28;20039;-69
2021/05/04 06:32:40;;;;;;;35.22;13.18;;;9.40;99.90;;;;;;4920891;28;20059;-67
2021/05/04 06:35:07;;;;;;;40.55;14.23;;;9.50;99.90;;;;;;4928298;28;20032;-70
2021/05/04 06:37:32;;;;;;;31.92;15.45;;;9.60;99.90;;;;;;4935296;28;20098;-69
2021/05/04 06:39:58;;;;;;;29.35;11.73;;;9.60;99.90;;;;;;4939612;28;20017;-69
2021/05/04 06:42:24;;;;;;;25.35;11.30;;;9.60;99.90;;;;;;4939236;28;20542;-68
2021/05/04 06:44:49;;;;;;;36.13;14.15;;;9.60;99.90;;;;;;4926656;28;20027;-69
2021/05/04 06:47:16;;;;;;;28.63;11.98;;;9.70;99.90;;;;;;4928947;28;20032;-71
2021/05/04 06:49:44;;;;;;;23.73;12.95;;;9.70;99.90;;;;;;4926360;28;20028;-67
2021/05/04 06:52:10;;;;;;;31.85;13.00;;;9.70;99.90;;;;;;4923613;28;20016;-71
2021/05/04 06:54:40;;;;;;;24.88;12.57;;;9.80;99.90;;;;;;4928012;28;20655;-72
2021/05/04 06:57:12;;;;;;;38.80;13.07;;;9.80;99.90;;;;;;4926407;28;20034;-72
2021/05/04 06:59:37;;;;;;;35.80;12.63;;;9.90;99.90;;;;;;4924255;28;20129;-68
2021/05/04 07:02:03;;;;;;;29.70;12.02;;;9.90;99.90;;;;;;4932987;28;20383;-70
2021/05/04 07:04:29;;;;;;;28.17;12.65;;;9.90;99.90;;;;;;4926941;28;20028;-73
2021/05/04 07:06:58;;;;;;;24.40;10.43;;;9.90;99.90;;;;;;4930771;28;20111;-73
2021/05/04 07:09:23;;;;;;;15.88;11.05;;;9.80;99.90;;;;;;4927691;28;20020;-70
2021/05/04 07:11:51;;;;;;;27.05;11.90;;;9.70;99.90;;;;;;4932510;28;20070;-72
2021/05/04 07:14:17;;;;;;;18.10;11.82;;;9.70;99.90;;;;;;4922441;29;20023;-72
2021/05/04 07:16:44;;;;;;;23.15;11.30;;;9.60;99.90;;;;;;4944673;28;20035;-73
2021/05/04 07:19:10;;;;;;;20.80;11.43;;;9.40;99.90;;;;;;4948854;28;20022;-70
2021/05/04 07:21:36;;;;;;;15.85;11.18;;;9.40;99.90;;;;;;4940057;28;20455;-68
2021/05/04 07:24:02;;;;;;;27.55;12.38;;;9.30;99.90;;;;;;4927252;28;20028;-69
2021/05/04 07:26:28;;;;;;;26.88;11.88;;;9.30;99.90;;;;;;4929922;28;20040;-70
2021/05/04 07:28:54;;;;;;;18.50;11.02;;;9.40;99.90;;;;;;4928866;28;20059;-69
2021/05/04 07:31:19;;;;;;;20.90;11.88;;;9.40;99.90;;;;;;4930482;28;20515;-70
2021/05/04 07:33:45;;;;;;;17.70;11.55;;;9.50;99.90;;;;;;4946936;28;20033;-69
2021/05/04 07:36:11;;;;;;;25.55;11.80;;;9.50;99.90;;;;;;4938983;28;20023;-70
2021/05/04 07:38:36;;;;;;;31.67;12.02;;;9.50;99.90;;;;;;4931057;28;20019;-71
2021/05/04 07:41:02;;;;;;;25.75;12.48;;;9.50;99.90;;;;;;4929348;28;20031;-68
2021/05/04 07:43:27;;;;;;;18.25;11.80;;;9.50;99.90;;;;;;4934091;28;20074;-69
2021/05/04 07:45:53;;;;;;;20.55;11.30;;;9.50;99.90;;;;;;4930423;28;20044;-70
2021/05/04 07:48:19;;;;;;;28.70;12.27;;;9.60;99.90;;;;;;4939502;28;20051;-69
2021/05/04 07:50:44;;;;;;;20.40;10.93;;;9.60;99.90;;;;;;4935186;28;20040;-71
2021/05/04 07:53:20;;;;;;;24.33;11.13;;;9.70;99.90;;;;;;4929968;28;20096;-76
2021/05/04 07:55:46;;;;;;;27.13;11.05;;;9.80;99.90;;;;;;4925132;28;20039;-67
2021/05/04 07:58:13;;;;;;;19.75;10.60;;;9.90;99.90;;;;;;4930491;28;20020;-69
2021/05/04 08:00:38;;;;;;;23.27;9.43;;;9.90;99.90;;;;;;4935797;28;20031;-69
2021/05/04 08:03:04;;;;;;;33.05;11.90;;;10.00;99.90;;;;;;4935763;28;20030;-69
2021/05/04 08:05:30;;;;;;;34.60;13.23;;;10.10;99.90;;;;;;4915539;28;20105;-72
2021/05/04 08:07:55;;;;;;;27.75;12.50;;;10.10;99.90;;;;;;4931929;28;20058;-70
2021/05/04 08:10:22;;;;;;;32.38;13.48;;;10.20;99.90;;;;;;4931025;28;20483;-71
2021/05/04 08:12:48;;;;;;;23.70;14.73;;;10.20;99.90;;;;;;4935114;28;20123;-70
2021/05/04 08:15:18;;;;;;;30.00;16.38;;;10.10;99.90;;;;;;4934445;28;20039;-68
2021/05/04 08:17:50;;;;;;;27.05;17.90;;;10.00;99.90;;;;;;4935248;28;20047;-72
2021/05/04 08:20:16;;;;;;;17.63;15.80;;;10.00;99.90;;;;;;4934618;28;20023;-70
2021/05/04 08:22:41;;;;;;;26.05;18.13;;;9.70;99.90;;;;;;4937492;28;20059;-71
2021/05/04 08:25:07;;;;;;;36.28;17.88;;;9.70;99.90;;;;;;4937082;28;20016;-70
2021/05/04 08:27:36;;;;;;;27.92;16.25;;;9.80;99.90;;;;;;4929278;28;20043;-75
2021/05/04 08:30:03;;;;;;;20.65;13.57;;;10.00;99.90;;;;;;4932178;28;20107;-71
2021/05/04 08:32:29;;;;;;;22.65;11.65;;;10.20;99.90;;;;;;4919164;28;20039;-67
2021/05/04 08:34:55;;;;;;;28.48;13.23;;;10.30;99.90;;;;;;4928917;28;20056;-71
2021/05/04 08:37:20;;;;;;;27.63;14.18;;;10.40;99.90;;;;;;4933859;28;20419;-71
2021/05/04 08:39:47;;;;;;;28.15;12.82;;;10.60;99.90;;;;;;4924277;28;20083;-71
2021/05/04 08:42:12;;;;;;;28.55;13.45;;;10.70;99.90;;;;;;4922547;28;20024;-71
2021/05/04 08:44:42;;;;;;;29.23;13.75;;;10.60;99.90;;;;;;4932203;28;20035;-72
2021/05/04 08:47:07;;;;;;;24.80;14.10;;;10.50;99.90;;;;;;4933086;28;20036;-71
2021/05/04 08:49:37;;;;;;;34.05;14.60;;;10.40;99.90;;;;;;4935161;28;20078;-75
2021/05/04 08:52:03;;;;;;;26.77;21.08;;;10.30;99.90;;;;;;4938598;28;20051;-72
2021/05/04 08:54:31;;;;;;;25.23;12.98;;;10.10;99.90;;;;;;4939335;28;20024;-72
2021/05/04 08:56:57;;;;;;;19.65;11.65;;;9.90;99.90;;;;;;4939233;28;20474;-71
2021/05/04 08:59:22;;;;;;;20.33;10.45;;;9.70;99.90;;;;;;4935861;28;20047;-69
2021/05/04 09:01:48;;;;;;;24.83;10.02;;;9.60;99.90;;;;;;4944069;28;20052;-72
2021/05/04 09:04:40;;;;;;;28.75;10.10;;;9.60;99.90;;;;;;4955830;28;20016;-71
2021/05/04 09:07:14;;;;;;;27.67;10.90;;;9.70;99.90;;;;;;4922404;28;20115;-72
2021/05/04 09:12:57;;;;;;;21.73;7.25;;;10.30;99.90;;;;;;4891427;28;20361;-71
2021/05/04 09:21:05;;;;;;;15.32;6.72;;;10.10;99.90;;;;;;4942494;28;20020;-73
2021/05/04 09:23:31;;;;;;;12.85;5.03;;;10.30;99.90;;;;;;4939944;28;20376;-73
2021/05/04 09:25:59;;;;;;;17.33;4.50;;;10.80;99.90;;;;;;4937977;28;20038;-72
2021/05/04 09:28:24;;;;;;;16.95;5.72;;;11.10;99.90;;;;;;4932805;28;20114;-74
2021/05/04 09:30:56;;;;;;;14.15;7.00;;;10.30;99.90;;;;;;4940649;28;20038;-77
2021/05/04 09:33:24;;;;;;;26.98;10.15;;;9.70;99.90;;;;;;4943474;28;20032;-74
2021/05/04 09:35:50;;;;;;;10.95;7.70;;;9.60;99.90;;;;;;4937175;28;20035;-72
2021/05/04 09:38:23;;;;;;;20.42;6.20;;;9.70;99.90;;;;;;4938909;28;20019;-71
2021/05/04 09:40:55;;;;;;;12.68;4.70;;;10.10;99.90;;;;;;4933771;28;20051;-74
2021/05/04 09:43:27;;;;;;;12.30;1.88;;;10.50;99.90;;;;;;4945923;28;20034;-75
2021/05/04 09:46:01;;;;;;;12.85;1.65;;;10.90;99.90;;;;;;4933864;28;20020;-75
2021/05/04 09:48:34;;;;;;;14.10;1.70;;;11.10;99.90;;;;;;4930148;28;20451;-74
2021/05/04 09:51:04;;;;;;;7.80;1.27;;;11.00;99.90;;;;;;4929118;28;20117;-74
2021/05/04 09:56:37;;;;;;;7.80;1.00;;;10.50;99.90;;;;;;4946100;28;20031;-75
2021/05/04 09:59:07;;;;;;;5.78;1.05;;;11.00;99.90;;;;;;4942925;28;20031;-73
2021/05/04 10:01:39;;;;;;;7.32;1.30;;;10.90;99.90;;;;;;4944522;28;20020;-73
2021/05/04 10:04:05;;;;;;;3.58;1.15;;;10.70;99.90;;;;;;4941346;28;20035;-75
2021/05/04 10:06:31;;;;;;;7.70;1.23;;;10.80;99.90;;;;;;4941066;28;20431;-75
2021/05/04 10:08:58;;;;;;;12.90;1.70;;;10.90;99.90;;;;;;4938435;28;20028;-75
2021/05/04 10:11:25;;;;;;;7.88;1.90;;;10.90;99.90;;;;;;4936574;28;20051;-73
2021/05/04 10:13:53;;;;;;;7.45;1.30;;;11.00;99.90;;;;;;4929856;28;20488;-74
2021/05/04 10:16:27;;;;;;;4.50;1.08;;;11.20;99.90;;;;;;4930439;28;20024;-73
2021/05/04 10:18:57;;;;;;;7.85;1.27;;;11.30;99.90;;;;;;4924366;28;20020;-74
2021/05/04 10:21:25;;;;;;;8.63;1.33;;;11.10;99.90;;;;;;4935413;28;20027;-75
2021/05/04 10:23:52;;;;;;;11.48;1.65;;;11.00;99.90;;;;;;4930753;28;20111;-75
2021/05/04 10:26:19;;;;;;;8.98;1.58;;;11.00;99.90;;;;;;4928158;28;20486;-70
2021/05/04 10:28:54;;;;;;;15.38;1.95;;;11.00;99.90;;;;;;4933946;28;20099;-73
2021/05/04 10:31:36;;;;;;;9.63;1.38;;;11.00;99.90;;;;;;4935603;28;20039;-72
2021/05/04 10:34:23;;;;;;;14.57;1.50;;;10.60;99.90;;;;;;4934308;28;20115;-75
2021/05/04 10:36:48;;;;;;;6.78;1.30;;;10.40;99.90;;;;;;4933497;28;20043;-72
2021/05/04 10:39:32;;;;;;;9.63;1.50;;;10.50;99.90;;;;;;4918186;28;20054;-73
2021/05/04 10:41:59;;;;;;;12.52;1.85;;;10.90;99.90;;;;;;4931061;28;20127;-73
2021/05/04 10:44:27;;;;;;;9.80;1.63;;;11.10;99.90;;;;;;4937721;28;20116;-72
2021/05/04 10:46:54;;;;;;;7.65;1.30;;;11.10;99.90;;;;;;4932843;28;20027;-72
2021/05/04 10:49:55;;;;;;;4.22;1.23;;;11.00;99.90;;;;;;4934569;28;20052;-74
2021/05/04 10:55:19;;;;;;;6.20;1.35;;;10.90;99.90;;;;;;4928853;28;20085;-74
2021/05/04 10:58:05;;;;;;;5.95;0.70;;;10.90;99.90;;;;;;4942203;28;20111;-72
2021/05/04 11:00:53;;;;;;;5.65;1.23;;;11.00;99.90;;;;;;4936189;28;20093;-74
2021/05/04 11:03:31;;;;;;;5.32;1.58;;;10.90;99.90;;;;;;4935309;28;20024;-74
2021/05/04 11:06:09;;;;;;;4.50;0.85;;;11.00;99.90;;;;;;4935377;28;20027;-75
2021/05/04 11:08:41;;;;;;;7.10;1.42;;;11.00;99.90;;;;;;4927291;28;20031;-74
2021/05/04 11:11:47;;;;;;;5.28;1.05;;;11.00;99.90;;;;;;4928731;28;20154;-77
2021/05/04 11:14:16;;;;;;;6.57;1.08;;;11.00;99.90;;;;;;4934189;28;20194;-74
2021/05/04 11:16:59;;;;;;;5.25;0.90;;;10.90;99.90;;;;;;4932136;28;20107;-76
2021/05/04 11:19:34;;;;;;;5.90;1.52;;;10.90;99.90;;;;;;4931074;28;20024;-75
2021/05/04 11:22:00;;;;;;;6.90;1.10;;;11.00;99.90;;;;;;4937419;28;20027;-75
2021/05/04 11:27:01;;;;;;;7.27;1.37;;;11.10;99.90;;;;;;4951690;28;20335;-74
2021/05/04 11:29:33;;;;;;;5.57;1.30;;;11.10;99.90;;;;;;4952028;28;20039;-73
2021/05/04 11:32:19;;;;;;;6.75;0.77;;;11.00;99.90;;;;;;4946125;28;20024;-73
2021/05/04 11:34:51;;;;;;;5.60;1.20;;;11.00;99.90;;;;;;4934314;28;20024;-75
2021/05/04 11:37:20;;;;;;;5.32;0.80;;;11.00;99.90;;;;;;4934805;28;20495;-77
2021/05/04 11:39:57;;;;;;;4.82;0.90;;;11.10;99.90;;;;;;4927976;28;20051;-72
2021/05/04 11:42:33;;;;;;;3.92;0.82;;;11.10;99.90;;;;;;4934417;28;20035;-75
2021/05/04 11:45:07;;;;;;;5.10;1.05;;;11.10;99.90;;;;;;4936708;28;20015;-73
2021/05/04 11:47:34;;;;;;;6.82;1.13;;;11.10;99.90;;;;;;4932537;28;20055;-76
2021/05/04 11:50:08;;;;;;;4.78;0.93;;;11.10;99.90;;;;;;4934804;28;20103;-74
2021/05/04 11:52:34;;;;;;;2.85;1.00;;;11.00;99.90;;;;;;4929298;28;20019;-74
2021/05/04 11:55:12;;;;;;;8.35;1.13;;;10.90;99.90;;;;;;4929537;28;20111;-75
2021/05/04 11:57:41;;;;;;;6.35;1.02;;;10.90;99.90;;;;;;4941874;28;20032;-74
2021/05/04 12:00:21;;;;;;;6.60;1.27;;;10.90;99.90;;;;;;4980740;28;20032;-76
2021/05/04 12:02:47;;;;;;;8.07;1.90;;;10.90;99.90;;;;;;4935555;28;20039;-76
2021/05/04 12:05:16;;;;;;;8.65;1.42;;;11.10;99.90;;;;;;4937887;28;20058;-72
2021/05/04 12:07:44;;;;;;;8.63;1.45;;;11.20;99.90;;;;;;4938455;28;20024;-76
2021/05/04 12:10:16;;;;;;;8.98;1.85;;;11.20;99.90;;;;;;4927063;28;20044;-76
2021/05/04 12:12:48;;;;;;;8.23;2.50;;;11.20;99.90;;;;;;4931601;28;20094;-75
2021/05/04 12:15:17;;;;;;;4.03;1.10;;;11.20;99.90;;;;;;4936453;28;20024;-75
2021/05/04 12:17:43;;;;;;;8.40;1.17;;;11.20;99.90;;;;;;4935682;28;20027;-75
2021/05/04 12:20:15;;;;;;;9.35;1.35;;;11.20;99.90;;;;;;4930889;28;20506;-72
2021/05/04 12:22:53;;;;;;;6.03;0.90;;;11.10;99.90;;;;;;4931070;28;20019;-72
2021/05/04 12:25:24;;;;;;;10.00;0.90;;;11.20;99.90;;;;;;4933537;28;20373;-74
2021/05/04 12:27:50;;;;;;;3.88;0.90;;;11.20;99.90;;;;;;4916668;28;20032;-76
2021/05/04 12:30:23;;;;;;;6.65;1.20;;;11.30;99.90;;;;;;4934534;28;20034;-73
2021/05/04 12:32:49;;;;;;;8.15;1.50;;;11.20;99.90;;;;;;4934785;28;20027;-75
2021/05/04 12:35:24;;;;;;;2.38;1.20;;;10.20;99.90;;;;;;4933479;28;20036;-73
2021/05/04 12:38:33;;;;;;;6.13;1.05;;;9.90;99.90;;;;;;4932142;28;20020;-74
2021/05/04 12:41:12;;;;;;;6.75;1.40;;;10.00;99.90;;;;;;4916375;28;20150;-76
2021/05/04 12:43:44;;;;;;;9.35;1.75;;;10.20;99.90;;;;;;4932876;28;20023;-77
2021/05/04 12:46:11;;;;;;;8.00;1.63;;;10.30;99.90;;;;;;4930194;28;20028;-72
2021/05/04 12:48:39;;;;;;;6.90;1.27;;;10.50;99.90;;;;;;4930811;28;20034;-75
2021/05/04 12:51:15;;;;;;;12.43;1.55;;;10.80;99.90;;;;;;4932474;28;20032;-76
2021/05/04 12:53:46;;;;;;;13.38;1.88;;;11.00;99.90;;;;;;4936113;28;20020;-77
2021/05/04 12:56:19;;;;;;;7.32;1.10;;;11.10;99.90;;;;;;4933759;28;20035;-71
2021/05/04 12:59:10;;;;;;;3.83;1.40;;;11.40;99.90;;;;;;4927468;28;20072;-75
2021/05/04 13:01:55;;;;;;;14.40;1.55;;;11.80;99.90;;;;;;4931871;28;20390;-77
2021/05/04 13:04:38;;;;;;;10.70;1.42;;;12.20;99.90;;;;;;4933715;28;20046;-72